sensor_id;sensor_type;location;lat;lon;timestamp;P1;durP1;ratioP1;P2;durP2;ratioP2
7899;SDS011;3995;50.856;4.404;2024-03-23T00:55:19;11.70;;;3.63;;
7899;SDS011;3995;50.856;4.404;2024-03-23T00:57:45;9.90;;;4.20;;
7899;SDS011;3995;50.856;4.404;2024-03-23T01:00:13;7.23;;;3.57;;
7899;SDS011;3995;50.856;4.404;2024-03-23T01:02:40;10.20;;;3.70;;
7899;SDS011;3995;50.856;4.404;2024-03-23T01:05:08;11.43;;;3.50;;
7899;SDS011;3995;50.856;4.404;2024-03-23T01:07:34;9.53;;;3.70;;
7899;SDS011;3995;50.856;4.404;2024-03-23T01:10:02;6.77;;;3.20;;
7899;SDS011;3995;50.856;4.404;2024-03-23T01:12:29;9.20;;;3.87;;
7899;SDS011;3995;50.856;4.404;2024-03-23T01:14:56;6.63;;;2.87;;
7899;SDS011;3995;50.856;4.404;2024-03-23T01:17:22;7.13;;;3.23;;
7899;SDS011;3995;50.856;4.404;2024-03-23T01:19:49;7.40;;;3.07;;
7899;SDS011;3995;50.856;4.404;2024-03-23T01:22:14;9.50;;;4.17;;
7899;SDS011;3995;50.856;4.404;2024-03-23T01:24:41;7.53;;;3.20;;
7899;SDS011;3995;50.856;4.404;2024-03-23T01:27:09;9.03;;;3.83;;
7899;SDS011;3995;50.856;4.404;2024-03-23T01:29:36;7.20;;;2.63;;
7899;SDS011;3995;50.856;4.404;2024-03-23T01:32:02;9.77;;;4.03;;
7899;SDS011;3995;50.856;4.404;2024-03-23T01:34:29;7.40;;;3.07;;
7899;SDS011;3995;50.856;4.404;2024-03-23T01:36:55;10.13;;;3.87;;
7899;SDS011;3995;50.856;4.404;2024-03-23T01:39:22;10.17;;;3.63;;
7899;SDS011;3995;50.856;4.404;2024-03-23T01:41:48;9.10;;;4.30;;
7899;SDS011;3995;50.856;4.404;2024-03-23T01:44:16;9.53;;;3.83;;
7899;SDS011;3995;50.856;4.404;2024-03-23T01:46:42;9.63;;;3.90;;
7899;SDS011;3995;50.856;4.404;2024-03-23T01:49:10;8.30;;;4.10;;
7899;SDS011;3995;50.856;4.404;2024-03-23T01:51:37;7.03;;;4.10;;
7899;SDS011;3995;50.856;4.404;2024-03-23T01:54:05;11.43;;;4.30;;
7899;SDS011;3995;50.856;4.404;2024-03-23T01:56:32;12.63;;;4.53;;
7899;SDS011;3995;50.856;4.404;2024-03-23T01:59:00;7.37;;;4.40;;
7899;SDS011;3995;50.856;4.404;2024-03-23T02:01:28;11.53;;;4.23;;
7899;SDS011;3995;50.856;4.404;2024-03-23T02:03:55;10.60;;;4.57;;
7899;SDS011;3995;50.856;4.404;2024-03-23T02:06:21;10.87;;;4.80;;
7899;SDS011;3995;50.856;4.404;2024-03-23T02:08:48;9.53;;;4.07;;
7899;SDS011;3995;50.856;4.404;2024-03-23T02:11:14;7.47;;;4.20;;
7899;SDS011;3995;50.856;4.404;2024-03-23T02:13:41;11.87;;;4.97;;
7899;SDS011;3995;50.856;4.404;2024-03-23T02:16:07;8.00;;;3.97;;
7899;SDS011;3995;50.856;4.404;2024-03-23T02:18:36;9.57;;;4.57;;
7899;SDS011;3995;50.856;4.404;2024-03-23T02:21:03;7.50;;;4.37;;
7899;SDS011;3995;50.856;4.404;2024-03-23T02:23:32;7.73;;;4.57;;
7899;SDS011;3995;50.856;4.404;2024-03-23T02:25:58;9.10;;;4.10;;
7899;SDS011;3995;50.856;4.404;2024-03-23T02:28:25;8.50;;;4.93;;
7899;SDS011;3995;50.856;4.404;2024-03-23T02:30:51;11.63;;;5.60;;
7899;SDS011;3995;50.856;4.404;2024-03-23T02:33:18;9.87;;;4.67;;
7899;SDS011;3995;50.856;4.404;2024-03-23T02:35:44;8.50;;;5.13;;
7899;SDS011;3995;50.856;4.404;2024-03-23T02:38:11;12.03;;;5.23;;
7899;SDS011;3995;50.856;4.404;2024-03-23T02:40:39;12.60;;;6.10;;
7899;SDS011;3995;50.856;4.404;2024-03-23T02:43:06;10.60;;;5.37;;
7899;SDS011;3995;50.856;4.404;2024-03-23T02:45:32;12.63;;;4.93;;
7899;SDS011;3995;50.856;4.404;2024-03-23T02:47:58;8.10;;;4.77;;
7899;SDS011;3995;50.856;4.404;2024-03-23T02:50:24;8.13;;;5.83;;
7899;SDS011;3995;50.856;4.404;2024-03-23T02:52:51;12.40;;;5.10;;
7899;SDS011;3995;50.856;4.404;2024-03-23T02:55:17;12.70;;;5.10;;
7899;SDS011;3995;50.856;4.404;2024-03-23T02:57:46;9.13;;;4.83;;
7899;SDS011;3995;50.856;4.404;2024-03-23T03:00:12;11.53;;;5.57;;
7899;SDS011;3995;50.856;4.404;2024-03-23T03:02:39;7.10;;;5.10;;
7899;SDS011;3995;50.856;4.404;2024-03-23T03:05:05;12.13;;;5.50;;
7899;SDS011;3995;50.856;4.404;2024-03-23T03:07:34;14.73;;;5.43;;
7899;SDS011;3995;50.856;4.404;2024-03-23T03:09:59;13.80;;;5.97;;
7899;SDS011;3995;50.856;4.404;2024-03-23T03:12:27;8.43;;;5.40;;
7899;SDS011;3995;50.856;4.404;2024-03-23T03:14:54;10.60;;;5.13;;
7899;SDS011;3995;50.856;4.404;2024-03-23T03:17:21;11.00;;;5.27;;
7899;SDS011;3995;50.856;4.404;2024-03-23T03:19:48;10.47;;;4.87;;
7899;SDS011;3995;50.856;4.404;2024-03-23T03:22:20;11.77;;;5.13;;
7899;SDS011;3995;50.856;4.404;2024-03-23T03:24:46;11.80;;;5.13;;
7899;SDS011;3995;50.856;4.404;2024-03-23T03:27:13;14.80;;;5.53;;
7899;SDS011;3995;50.856;4.404;2024-03-23T03:29:40;10.50;;;5.57;;
7899;SDS011;3995;50.856;4.404;2024-03-23T03:32:08;15.73;;;6.20;;
7899;SDS011;3995;50.856;4.404;2024-03-23T03:34:34;12.63;;;4.90;;
7899;SDS011;3995;50.856;4.404;2024-03-23T03:37:01;10.13;;;5.63;;
7899;SDS011;3995;50.856;4.404;2024-03-23T03:39:27;10.20;;;5.50;;
7899;SDS011;3995;50.856;4.404;2024-03-23T03:41:54;20.37;;;5.10;;
7899;SDS011;3995;50.856;4.404;2024-03-23T03:44:20;8.40;;;5.10;;
7899;SDS011;3995;50.856;4.404;2024-03-23T03:46:47;13.47;;;5.47;;
7899;SDS011;3995;50.856;4.404;2024-03-23T03:49:14;11.13;;;5.63;;
7899;SDS011;3995;50.856;4.404;2024-03-23T03:51:41;17.73;;;5.40;;
7899;SDS011;3995;50.856;4.404;2024-03-23T03:54:07;13.17;;;5.83;;
7899;SDS011;3995;50.856;4.404;2024-03-23T03:56:34;12.90;;;5.70;;
7899;SDS011;3995;50.856;4.404;2024-03-23T03:59:00;12.40;;;5.10;;
7899;SDS011;3995;50.856;4.404;2024-03-23T04:01:27;15.50;;;5.67;;
7899;SDS011;3995;50.856;4.404;2024-03-23T04:03:53;12.67;;;4.97;;
7899;SDS011;3995;50.856;4.404;2024-03-23T04:06:21;11.30;;;5.30;;
7899;SDS011;3995;50.856;4.404;2024-03-23T04:08:47;12.60;;;5.70;;
7899;SDS011;3995;50.856;4.404;2024-03-23T04:11:14;14.03;;;5.77;;
7899;SDS011;3995;50.856;4.404;2024-03-23T04:13:40;10.27;;;4.73;;
7899;SDS011;3995;50.856;4.404;2024-03-23T04:16:07;12.03;;;6.23;;
7899;SDS011;3995;50.856;4.404;2024-03-23T04:18:34;8.10;;;4.93;;
7899;SDS011;3995;50.856;4.404;2024-03-23T04:21:01;11.33;;;5.30;;
7899;SDS011;3995;50.856;4.404;2024-03-23T04:23:29;12.53;;;5.20;;
7899;SDS011;3995;50.856;4.404;2024-03-23T04:25:57;9.10;;;4.60;;
7899;SDS011;3995;50.856;4.404;2024-03-23T04:28:28;15.07;;;4.57;;
7899;SDS011;3995;50.856;4.404;2024-03-23T04:30:55;13.60;;;4.77;;
7899;SDS011;3995;50.856;4.404;2024-03-23T04:33:21;12.13;;;4.37;;
7899;SDS011;3995;50.856;4.404;2024-03-23T04:35:48;4.83;;;3.07;;
7899;SDS011;3995;50.856;4.404;2024-03-23T04:38:14;9.27;;;3.80;;
7899;SDS011;3995;50.856;4.404;2024-03-23T04:40:43;11.70;;;3.27;;
7899;SDS011;3995;50.856;4.404;2024-03-23T04:43:10;6.30;;;3.40;;
7899;SDS011;3995;50.856;4.404;2024-03-23T04:45:37;11.60;;;4.07;;
7899;SDS011;3995;50.856;4.404;2024-03-23T04:48:04;15.17;;;4.83;;
7899;SDS011;3995;50.856;4.404;2024-03-23T04:50:31;8.83;;;3.83;;
7899;SDS011;3995;50.856;4.404;2024-03-23T04:53:01;8.20;;;3.57;;
7899;SDS011;3995;50.856;4.404;2024-03-23T04:55:28;7.30;;;3.87;;
7899;SDS011;3995;50.856;4.404;2024-03-23T04:57:55;8.30;;;3.57;;
7899;SDS011;3995;50.856;4.404;2024-03-23T05:00:22;9.03;;;3.30;;
7899;SDS011;3995;50.856;4.404;2024-03-23T05:02:48;11.53;;;4.63;;
7899;SDS011;3995;50.856;4.404;2024-03-23T05:05:15;8.07;;;3.67;;
7899;SDS011;3995;50.856;4.404;2024-03-23T05:07:41;11.30;;;3.80;;
7899;SDS011;3995;50.856;4.404;2024-03-23T05:10:09;7.83;;;4.03;;
7899;SDS011;3995;50.856;4.404;2024-03-23T05:12:36;12.10;;;3.70;;
7899;SDS011;3995;50.856;4.404;2024-03-23T05:15:05;7.40;;;4.40;;
7899;SDS011;3995;50.856;4.404;2024-03-23T05:17:31;7.83;;;4.00;;
7899;SDS011;3995;50.856;4.404;2024-03-23T05:19:58;8.87;;;4.20;;
7899;SDS011;3995;50.856;4.404;2024-03-23T05:22:24;10.77;;;4.20;;
7899;SDS011;3995;50.856;4.404;2024-03-23T05:24:52;7.10;;;4.10;;
7899;SDS011;3995;50.856;4.404;2024-03-23T05:27:18;9.73;;;5.03;;
7899;SDS011;3995;50.856;4.404;2024-03-23T05:29:45;9.83;;;4.50;;
7899;SDS011;3995;50.856;4.404;2024-03-23T05:32:14;11.30;;;4.13;;
7899;SDS011;3995;50.856;4.404;2024-03-23T05:34:41;10.87;;;4.70;;
7899;SDS011;3995;50.856;4.404;2024-03-23T05:37:07;10.07;;;4.20;;
7899;SDS011;3995;50.856;4.404;2024-03-23T05:39:33;9.07;;;3.90;;
7899;SDS011;3995;50.856;4.404;2024-03-23T05:41:59;10.17;;;3.93;;
7899;SDS011;3995;50.856;4.404;2024-03-23T05:44:26;10.93;;;4.17;;
7899;SDS011;3995;50.856;4.404;2024-03-23T05:46:52;9.40;;;3.60;;
7899;SDS011;3995;50.856;4.404;2024-03-23T05:49:21;8.00;;;4.13;;
7899;SDS011;3995;50.856;4.404;2024-03-23T05:51:47;8.20;;;3.30;;
7899;SDS011;3995;50.856;4.404;2024-03-23T05:54:14;7.60;;;3.10;;
7899;SDS011;3995;50.856;4.404;2024-03-23T05:56:40;13.40;;;5.53;;
7899;SDS011;3995;50.856;4.404;2024-03-23T05:59:07;10.90;;;3.53;;
7899;SDS011;3995;50.856;4.404;2024-03-23T06:01:34;12.50;;;3.60;;
7899;SDS011;3995;50.856;4.404;2024-03-23T06:04:01;9.00;;;4.10;;
7899;SDS011;3995;50.856;4.404;2024-03-23T06:06:28;10.37;;;3.80;;
7899;SDS011;3995;50.856;4.404;2024-03-23T06:08:56;10.70;;;3.83;;
7899;SDS011;3995;50.856;4.404;2024-03-23T06:11:22;13.60;;;4.10;;
7899;SDS011;3995;50.856;4.404;2024-03-23T06:13:49;11.80;;;4.30;;
7899;SDS011;3995;50.856;4.404;2024-03-23T06:16:15;9.23;;;3.00;;
7899;SDS011;3995;50.856;4.404;2024-03-23T06:18:44;11.47;;;3.03;;
7899;SDS011;3995;50.856;4.404;2024-03-23T06:21:13;9.97;;;3.57;;
7899;SDS011;3995;50.856;4.404;2024-03-23T06:23:41;10.47;;;3.60;;
7899;SDS011;3995;50.856;4.404;2024-03-23T06:26:13;13.50;;;3.40;;
7899;SDS011;3995;50.856;4.404;2024-03-23T06:28:39;9.43;;;2.77;;
7899;SDS011;3995;50.856;4.404;2024-03-23T06:31:08;9.27;;;3.90;;
7899;SDS011;3995;50.856;4.404;2024-03-23T06:33:34;9.37;;;3.47;;
7899;SDS011;3995;50.856;4.404;2024-03-23T06:36:01;12.97;;;4.00;;
7899;SDS011;3995;50.856;4.404;2024-03-23T06:38:28;6.47;;;3.00;;
7899;SDS011;3995;50.856;4.404;2024-03-23T06:40:56;6.73;;;2.77;;
7899;SDS011;3995;50.856;4.404;2024-03-23T06:43:23;12.87;;;2.97;;
7899;SDS011;3995;50.856;4.404;2024-03-23T06:45:52;11.13;;;2.90;;
7899;SDS011;3995;50.856;4.404;2024-03-23T06:48:18;9.10;;;2.87;;
7899;SDS011;3995;50.856;4.404;2024-03-23T06:50:45;8.53;;;2.83;;
7899;SDS011;3995;50.856;4.404;2024-03-23T06:53:11;9.97;;;2.87;;
7899;SDS011;3995;50.856;4.404;2024-03-23T06:55:38;9.37;;;2.83;;
7899;SDS011;3995;50.856;4.404;2024-03-23T06:58:06;7.33;;;2.90;;
7899;SDS011;3995;50.856;4.404;2024-03-23T07:00:33;8.87;;;2.97;;
7899;SDS011;3995;50.856;4.404;2024-03-23T07:02:59;9.90;;;2.83;;
7899;SDS011;3995;50.856;4.404;2024-03-23T07:05:26;11.63;;;3.07;;
7899;SDS011;3995;50.856;4.404;2024-03-23T07:07:52;13.00;;;3.70;;
7899;SDS011;3995;50.856;4.404;2024-03-23T07:10:19;14.07;;;2.93;;
7899;SDS011;3995;50.856;4.404;2024-03-23T07:12:46;13.13;;;3.90;;
7899;SDS011;3995;50.856;4.404;2024-03-23T07:15:13;12.00;;;5.03;;
7899;SDS011;3995;50.856;4.404;2024-03-23T07:17:41;7.60;;;2.30;;
7899;SDS011;3995;50.856;4.404;2024-03-23T07:20:07;9.47;;;2.60;;
7899;SDS011;3995;50.856;4.404;2024-03-23T07:22:35;4.30;;;1.73;;
7899;SDS011;3995;50.856;4.404;2024-03-23T07:25:01;5.33;;;2.10;;
7899;SDS011;3995;50.856;4.404;2024-03-23T07:27:29;7.07;;;2.10;;
7899;SDS011;3995;50.856;4.404;2024-03-23T07:29:55;7.03;;;2.83;;
7899;SDS011;3995;50.856;4.404;2024-03-23T07:32:23;7.20;;;3.03;;
7899;SDS011;3995;50.856;4.404;2024-03-23T07:34:49;5.90;;;2.57;;
7899;SDS011;3995;50.856;4.404;2024-03-23T07:37:16;8.70;;;3.07;;
7899;SDS011;3995;50.856;4.404;2024-03-23T07:39:42;6.33;;;2.73;;
7899;SDS011;3995;50.856;4.404;2024-03-23T07:42:09;8.37;;;3.30;;
7899;SDS011;3995;50.856;4.404;2024-03-23T07:44:34;11.10;;;3.53;;
7899;SDS011;3995;50.856;4.404;2024-03-23T07:47:02;8.13;;;3.07;;
7899;SDS011;3995;50.856;4.404;2024-03-23T07:49:30;8.33;;;3.23;;
7899;SDS011;3995;50.856;4.404;2024-03-23T07:51:57;6.93;;;2.90;;
7899;SDS011;3995;50.856;4.404;2024-03-23T07:54:23;9.60;;;3.63;;
7899;SDS011;3995;50.856;4.404;2024-03-23T07:56:50;14.53;;;3.07;;
7899;SDS011;3995;50.856;4.404;2024-03-23T07:59:16;10.07;;;3.67;;
7899;SDS011;3995;50.856;4.404;2024-03-23T08:01:44;6.90;;;3.20;;
7899;SDS011;3995;50.856;4.404;2024-03-23T08:04:10;10.00;;;3.00;;
7899;SDS011;3995;50.856;4.404;2024-03-23T08:06:39;13.03;;;3.60;;
7899;SDS011;3995;50.856;4.404;2024-03-23T08:09:05;10.30;;;3.60;;
7899;SDS011;3995;50.856;4.404;2024-03-23T08:11:32;9.17;;;3.17;;
7899;SDS011;3995;50.856;4.404;2024-03-23T08:13:59;11.03;;;3.60;;
7899;SDS011;3995;50.856;4.404;2024-03-23T08:16:27;10.77;;;3.07;;
7899;SDS011;3995;50.856;4.404;2024-03-23T08:18:53;5.70;;;3.13;;
7899;SDS011;3995;50.856;4.404;2024-03-23T08:21:21;6.53;;;2.93;;
7899;SDS011;3995;50.856;4.404;2024-03-23T08:23:49;8.90;;;2.93;;
7899;SDS011;3995;50.856;4.404;2024-03-23T08:26:16;7.53;;;2.90;;
7899;SDS011;3995;50.856;4.404;2024-03-23T08:28:43;6.97;;;3.13;;
7899;SDS011;3995;50.856;4.404;2024-03-23T08:31:11;8.70;;;3.80;;
7899;SDS011;3995;50.856;4.404;2024-03-23T08:33:38;10.10;;;3.80;;
7899;SDS011;3995;50.856;4.404;2024-03-23T08:36:06;51.73;;;4.17;;
7899;SDS011;3995;50.856;4.404;2024-03-23T08:38:33;10.77;;;3.40;;
7899;SDS011;3995;50.856;4.404;2024-03-23T08:41:02;8.60;;;2.80;;
7899;SDS011;3995;50.856;4.404;2024-03-23T08:43:29;10.77;;;3.70;;
7899;SDS011;3995;50.856;4.404;2024-03-23T08:46:03;10.40;;;3.40;;
7899;SDS011;3995;50.856;4.404;2024-03-23T08:48:30;8.77;;;3.27;;
7899;SDS011;3995;50.856;4.404;2024-03-23T08:51:00;11.10;;;3.27;;
7899;SDS011;3995;50.856;4.404;2024-03-23T08:53:27;6.10;;;2.43;;
7899;SDS011;3995;50.856;4.404;2024-03-23T08:55:54;9.07;;;3.03;;
7899;SDS011;3995;50.856;4.404;2024-03-23T08:58:23;7.47;;;2.67;;
7899;SDS011;3995;50.856;4.404;2024-03-23T09:00:51;5.33;;;2.50;;
7899;SDS011;3995;50.856;4.404;2024-03-23T09:03:17;8.00;;;3.10;;
7899;SDS011;3995;50.856;4.404;2024-03-23T09:05:44;5.77;;;2.37;;
7899;SDS011;3995;50.856;4.404;2024-03-23T09:08:10;5.87;;;2.63;;
7899;SDS011;3995;50.856;4.404;2024-03-23T09:10:38;10.83;;;2.90;;
7899;SDS011;3995;50.856;4.404;2024-03-23T09:13:04;9.77;;;2.63;;
7899;SDS011;3995;50.856;4.404;2024-03-23T09:15:33;6.00;;;2.77;;
7899;SDS011;3995;50.856;4.404;2024-03-23T09:18:00;12.30;;;2.80;;
7899;SDS011;3995;50.856;4.404;2024-03-23T09:20:27;6.60;;;2.70;;
7899;SDS011;3995;50.856;4.404;2024-03-23T09:22:53;10.93;;;3.30;;
7899;SDS011;3995;50.856;4.404;2024-03-23T09:25:20;8.70;;;3.20;;
7899;SDS011;3995;50.856;4.404;2024-03-23T09:27:46;9.37;;;3.33;;
7899;SDS011;3995;50.856;4.404;2024-03-23T09:30:14;10.57;;;3.20;;
7899;SDS011;3995;50.856;4.404;2024-03-23T09:32:43;8.67;;;2.93;;
7899;SDS011;3995;50.856;4.404;2024-03-23T09:35:10;8.03;;;2.40;;
7899;SDS011;3995;50.856;4.404;2024-03-23T09:37:36;9.40;;;2.40;;
7899;SDS011;3995;50.856;4.404;2024-03-23T09:40:05;7.10;;;2.27;;
7899;SDS011;3995;50.856;4.404;2024-03-23T09:42:34;6.10;;;2.63;;
7899;SDS011;3995;50.856;4.404;2024-03-23T09:45:01;8.67;;;2.50;;
7899;SDS011;3995;50.856;4.404;2024-03-23T09:47:27;7.40;;;3.77;;
7899;SDS011;3995;50.856;4.404;2024-03-23T09:49:57;5.53;;;2.60;;
7899;SDS011;3995;50.856;4.404;2024-03-23T09:52:23;6.17;;;2.40;;
7899;SDS011;3995;50.856;4.404;2024-03-23T09:54:50;5.07;;;2.40;;
7899;SDS011;3995;50.856;4.404;2024-03-23T09:57:16;6.20;;;2.50;;
7899;SDS011;3995;50.856;4.404;2024-03-23T09:59:43;5.47;;;2.50;;
7899;SDS011;3995;50.856;4.404;2024-03-23T10:02:09;5.10;;;2.30;;
7899;SDS011;3995;50.856;4.404;2024-03-23T10:04:42;5.30;;;2.80;;
7899;SDS011;3995;50.856;4.404;2024-03-23T10:07:13;6.83;;;3.00;;
7899;SDS011;3995;50.856;4.404;2024-03-23T10:09:42;6.40;;;2.03;;
7899;SDS011;3995;50.856;4.404;2024-03-23T10:12:09;4.20;;;2.10;;
7899;SDS011;3995;50.856;4.404;2024-03-23T10:14:37;8.10;;;2.30;;
7899;SDS011;3995;50.856;4.404;2024-03-23T10:17:13;8.10;;;2.67;;
7899;SDS011;3995;50.856;4.404;2024-03-23T10:19:42;5.70;;;2.43;;
7899;SDS011;3995;50.856;4.404;2024-03-23T10:22:09;3.53;;;1.80;;
7899;SDS011;3995;50.856;4.404;2024-03-23T10:24:41;5.60;;;2.20;;
7899;SDS011;3995;50.856;4.404;2024-03-23T10:27:07;7.53;;;2.60;;
7899;SDS011;3995;50.856;4.404;2024-03-23T10:29:34;8.73;;;2.30;;
7899;SDS011;3995;50.856;4.404;2024-03-23T10:32:09;5.50;;;2.23;;
7899;SDS011;3995;50.856;4.404;2024-03-23T10:34:36;10.57;;;2.97;;
7899;SDS011;3995;50.856;4.404;2024-03-23T10:37:03;3.90;;;2.60;;
7899;SDS011;3995;50.856;4.404;2024-03-23T10:39:32;8.63;;;2.83;;
7899;SDS011;3995;50.856;4.404;2024-03-23T10:42:01;5.23;;;1.90;;
7899;SDS011;3995;50.856;4.404;2024-03-23T10:44:29;5.13;;;2.20;;
7899;SDS011;3995;50.856;4.404;2024-03-23T10:46:56;5.87;;;2.73;;
7899;SDS011;3995;50.856;4.404;2024-03-23T10:49:26;5.47;;;1.90;;
7899;SDS011;3995;50.856;4.404;2024-03-23T10:51:54;5.17;;;2.13;;
7899;SDS011;3995;50.856;4.404;2024-03-23T10:54:24;5.80;;;1.90;;
7899;SDS011;3995;50.856;4.404;2024-03-23T10:56:50;8.27;;;2.00;;
7899;SDS011;3995;50.856;4.404;2024-03-23T10:59:24;5.17;;;2.40;;
7899;SDS011;3995;50.856;4.404;2024-03-23T11:01:54;4.13;;;1.90;;
7899;SDS011;3995;50.856;4.404;2024-03-23T11:04:31;4.63;;;1.80;;
7899;SDS011;3995;50.856;4.404;2024-03-23T11:06:58;4.50;;;2.13;;
7899;SDS011;3995;50.856;4.404;2024-03-23T11:09:41;7.10;;;2.10;;
7899;SDS011;3995;50.856;4.404;2024-03-23T11:12:29;3.60;;;1.73;;
7899;SDS011;3995;50.856;4.404;2024-03-23T11:15:10;15.30;;;1.90;;
7899;SDS011;3995;50.856;4.404;2024-03-23T11:17:37;6.83;;;1.90;;
7899;SDS011;3995;50.856;4.404;2024-03-23T11:20:05;7.47;;;1.63;;
7899;SDS011;3995;50.856;4.404;2024-03-23T11:22:38;4.90;;;2.10;;
7899;SDS011;3995;50.856;4.404;2024-03-23T11:25:13;6.93;;;2.13;;
7899;SDS011;3995;50.856;4.404;2024-03-23T11:27:40;5.53;;;2.20;;
7899;SDS011;3995;50.856;4.404;2024-03-23T11:30:15;6.03;;;2.20;;
7899;SDS011;3995;50.856;4.404;2024-03-23T11:32:42;5.00;;;2.00;;
7899;SDS011;3995;50.856;4.404;2024-03-23T11:35:10;4.87;;;2.07;;
7899;SDS011;3995;50.856;4.404;2024-03-23T11:38:00;3.47;;;1.57;;
7899;SDS011;3995;50.856;4.404;2024-03-23T11:40:37;10.83;;;2.37;;
7899;SDS011;3995;50.856;4.404;2024-03-23T11:43:05;5.70;;;1.83;;
7899;SDS011;3995;50.856;4.404;2024-03-23T11:45:35;4.63;;;1.97;;
7899;SDS011;3995;50.856;4.404;2024-03-23T11:48:05;5.37;;;1.80;;
7899;SDS011;3995;50.856;4.404;2024-03-23T11:50:33;9.03;;;1.67;;
7899;SDS011;3995;50.856;4.404;2024-03-23T11:53:07;3.67;;;1.50;;
7899;SDS011;3995;50.856;4.404;2024-03-23T11:55:39;9.10;;;2.40;;
7899;SDS011;3995;50.856;4.404;2024-03-23T11:58:07;4.00;;;2.13;;
7899;SDS011;3995;50.856;4.404;2024-03-23T12:00:35;5.70;;;1.60;;
7899;SDS011;3995;50.856;4.404;2024-03-23T12:03:01;5.97;;;2.03;;
7899;SDS011;3995;50.856;4.404;2024-03-23T12:05:28;5.50;;;1.93;;
7899;SDS011;3995;50.856;4.404;2024-03-23T12:07:55;7.10;;;2.07;;
7899;SDS011;3995;50.856;4.404;2024-03-23T12:10:22;2.80;;;1.53;;
7899;SDS011;3995;50.856;4.404;2024-03-23T12:12:58;4.63;;;1.83;;
7899;SDS011;3995;50.856;4.404;2024-03-23T12:15:26;5.60;;;2.30;;
7899;SDS011;3995;50.856;4.404;2024-03-23T12:18:07;4.90;;;1.97;;
7899;SDS011;3995;50.856;4.404;2024-03-23T12:20:34;6.30;;;2.00;;
7899;SDS011;3995;50.856;4.404;2024-03-23T12:23:09;6.00;;;2.00;;
7899;SDS011;3995;50.856;4.404;2024-03-23T12:25:37;4.07;;;1.40;;
7899;SDS011;3995;50.856;4.404;2024-03-23T12:28:04;4.90;;;1.50;;
7899;SDS011;3995;50.856;4.404;2024-03-23T12:30:34;4.60;;;1.70;;
7899;SDS011;3995;50.856;4.404;2024-03-23T12:33:01;2.63;;;1.30;;
7899;SDS011;3995;50.856;4.404;2024-03-23T12:35:31;3.47;;;1.53;;
7899;SDS011;3995;50.856;4.404;2024-03-23T12:37:57;4.77;;;1.70;;
7899;SDS011;3995;50.856;4.404;2024-03-23T12:40:26;6.70;;;2.40;;
7899;SDS011;3995;50.856;4.404;2024-03-23T12:42:53;3.00;;;1.80;;
7899;SDS011;3995;50.856;4.404;2024-03-23T12:45:20;4.27;;;2.27;;
7899;SDS011;3995;50.856;4.404;2024-03-23T12:47:45;8.20;;;1.83;;
7899;SDS011;3995;50.856;4.404;2024-03-23T12:50:12;4.13;;;1.70;;
7899;SDS011;3995;50.856;4.404;2024-03-23T12:52:40;7.63;;;1.67;;
7899;SDS011;3995;50.856;4.404;2024-03-23T12:55:07;6.83;;;1.80;;
7899;SDS011;3995;50.856;4.404;2024-03-23T12:57:33;4.07;;;2.20;;
7899;SDS011;3995;50.856;4.404;2024-03-23T13:00:01;4.10;;;1.97;;
7899;SDS011;3995;50.856;4.404;2024-03-23T13:02:28;4.70;;;1.97;;
7899;SDS011;3995;50.856;4.404;2024-03-23T13:04:55;5.33;;;2.07;;
7899;SDS011;3995;50.856;4.404;2024-03-23T13:07:22;3.97;;;1.90;;
7899;SDS011;3995;50.856;4.404;2024-03-23T13:09:51;5.50;;;1.83;;
7899;SDS011;3995;50.856;4.404;2024-03-23T13:12:17;2.97;;;1.83;;
7899;SDS011;3995;50.856;4.404;2024-03-23T13:14:45;5.87;;;1.50;;
7899;SDS011;3995;50.856;4.404;2024-03-23T13:17:11;5.17;;;1.83;;
7899;SDS011;3995;50.856;4.404;2024-03-23T13:19:38;3.50;;;1.90;;
7899;SDS011;3995;50.856;4.404;2024-03-23T13:22:04;5.13;;;2.00;;
7899;SDS011;3995;50.856;4.404;2024-03-23T13:24:32;4.47;;;2.00;;
7899;SDS011;3995;50.856;4.404;2024-03-23T13:26:59;3.63;;;1.60;;
7899;SDS011;3995;50.856;4.404;2024-03-23T13:29:26;3.03;;;1.10;;
7899;SDS011;3995;50.856;4.404;2024-03-23T13:31:52;4.53;;;1.50;;
7899;SDS011;3995;50.856;4.404;2024-03-23T13:34:19;5.30;;;1.70;;
7899;SDS011;3995;50.856;4.404;2024-03-23T13:36:46;3.37;;;1.33;;
7899;SDS011;3995;50.856;4.404;2024-03-23T13:39:14;3.30;;;1.50;;
7899;SDS011;3995;50.856;4.404;2024-03-23T13:41:41;4.77;;;1.50;;
7899;SDS011;3995;50.856;4.404;2024-03-23T13:44:11;5.50;;;1.77;;
7899;SDS011;3995;50.856;4.404;2024-03-23T13:46:37;5.33;;;1.77;;
7899;SDS011;3995;50.856;4.404;2024-03-23T13:49:05;13.67;;;2.07;;
7899;SDS011;3995;50.856;4.404;2024-03-23T13:51:31;8.17;;;2.10;;
7899;SDS011;3995;50.856;4.404;2024-03-23T13:53:58;4.90;;;1.70;;
7899;SDS011;3995;50.856;4.404;2024-03-23T13:56:26;3.30;;;1.80;;
7899;SDS011;3995;50.856;4.404;2024-03-23T13:58:54;5.57;;;1.63;;
7899;SDS011;3995;50.856;4.404;2024-03-23T14:01:21;6.17;;;2.30;;
7899;SDS011;3995;50.856;4.404;2024-03-23T14:03:49;5.67;;;2.13;;
7899;SDS011;3995;50.856;4.404;2024-03-23T14:06:15;12.10;;;2.33;;
7899;SDS011;3995;50.856;4.404;2024-03-23T14:08:42;3.80;;;2.03;;
7899;SDS011;3995;50.856;4.404;2024-03-23T14:11:08;4.70;;;1.90;;
7899;SDS011;3995;50.856;4.404;2024-03-23T14:13:35;6.60;;;1.97;;
7899;SDS011;3995;50.856;4.404;2024-03-23T14:16:01;5.40;;;1.97;;
7899;SDS011;3995;50.856;4.404;2024-03-23T14:18:30;4.00;;;1.93;;
7899;SDS011;3995;50.856;4.404;2024-03-23T14:20:57;10.30;;;3.00;;
7899;SDS011;3995;50.856;4.404;2024-03-23T14:23:25;7.07;;;2.30;;
7899;SDS011;3995;50.856;4.404;2024-03-23T14:25:54;7.47;;;2.03;;
7899;SDS011;3995;50.856;4.404;2024-03-23T14:28:21;5.17;;;1.50;;
7899;SDS011;3995;50.856;4.404;2024-03-23T14:30:48;4.17;;;2.27;;
7899;SDS011;3995;50.856;4.404;2024-03-23T14:33:15;3.93;;;1.80;;
7899;SDS011;3995;50.856;4.404;2024-03-23T14:35:43;4.70;;;1.80;;
7899;SDS011;3995;50.856;4.404;2024-03-23T14:38:17;4.20;;;2.00;;
7899;SDS011;3995;50.856;4.404;2024-03-23T14:40:43;4.73;;;1.70;;
7899;SDS011;3995;50.856;4.404;2024-03-23T14:43:12;3.30;;;1.70;;
7899;SDS011;3995;50.856;4.404;2024-03-23T14:45:45;2.93;;;2.03;;
7899;SDS011;3995;50.856;4.404;2024-03-23T14:48:34;3.77;;;1.60;;
7899;SDS011;3995;50.856;4.404;2024-03-23T14:51:02;3.80;;;1.70;;
7899;SDS011;3995;50.856;4.404;2024-03-23T14:53:31;4.87;;;2.63;;
7899;SDS011;3995;50.856;4.404;2024-03-23T14:55:57;5.90;;;1.93;;
7899;SDS011;3995;50.856;4.404;2024-03-23T14:58:25;6.10;;;2.10;;
7899;SDS011;3995;50.856;4.404;2024-03-23T15:00:51;4.73;;;1.60;;
7899;SDS011;3995;50.856;4.404;2024-03-23T15:03:18;4.70;;;1.77;;
7899;SDS011;3995;50.856;4.404;2024-03-23T15:05:51;4.50;;;1.67;;
7899;SDS011;3995;50.856;4.404;2024-03-23T15:08:20;3.53;;;1.70;;
7899;SDS011;3995;50.856;4.404;2024-03-23T15:10:46;4.37;;;1.97;;
7899;SDS011;3995;50.856;4.404;2024-03-23T15:13:13;6.73;;;1.83;;
7899;SDS011;3995;50.856;4.404;2024-03-23T15:15:40;3.20;;;2.00;;
7899;SDS011;3995;50.856;4.404;2024-03-23T15:18:09;4.20;;;1.73;;
7899;SDS011;3995;50.856;4.404;2024-03-23T15:20:37;6.67;;;1.73;;
7899;SDS011;3995;50.856;4.404;2024-03-23T15:23:04;5.53;;;2.13;;
7899;SDS011;3995;50.856;4.404;2024-03-23T15:25:32;4.63;;;1.67;;
7899;SDS011;3995;50.856;4.404;2024-03-23T15:27:58;7.00;;;2.00;;
7899;SDS011;3995;50.856;4.404;2024-03-23T15:30:25;4.87;;;2.10;;
7899;SDS011;3995;50.856;4.404;2024-03-23T15:32:51;11.70;;;2.20;;
7899;SDS011;3995;50.856;4.404;2024-03-23T15:35:18;4.10;;;1.90;;
7899;SDS011;3995;50.856;4.404;2024-03-23T15:37:44;3.83;;;1.80;;
7899;SDS011;3995;50.856;4.404;2024-03-23T15:40:11;5.07;;;2.10;;
7899;SDS011;3995;50.856;4.404;2024-03-23T15:42:39;4.90;;;2.00;;
7899;SDS011;3995;50.856;4.404;2024-03-23T15:45:06;3.10;;;1.80;;
7899;SDS011;3995;50.856;4.404;2024-03-23T15:47:34;8.67;;;2.40;;
7899;SDS011;3995;50.856;4.404;2024-03-23T15:50:01;7.07;;;2.10;;
7899;SDS011;3995;50.856;4.404;2024-03-23T15:52:33;7.90;;;1.80;;
7899;SDS011;3995;50.856;4.404;2024-03-23T15:55:01;7.67;;;2.50;;
7899;SDS011;3995;50.856;4.404;2024-03-23T15:57:30;6.20;;;2.50;;
7899;SDS011;3995;50.856;4.404;2024-03-23T15:59:59;6.63;;;3.40;;
7899;SDS011;3995;50.856;4.404;2024-03-23T16:02:25;15.10;;;2.80;;
7899;SDS011;3995;50.856;4.404;2024-03-23T16:04:52;8.47;;;2.90;;
7899;SDS011;3995;50.856;4.404;2024-03-23T16:07:18;3.23;;;2.00;;
7899;SDS011;3995;50.856;4.404;2024-03-23T16:09:45;5.20;;;2.70;;